Time;durP1;ratioP1;P1;durP2;ratioP2;P2;SDS_P1;SDS_P2;PMS_P1;PMS_P2;Temp;Humidity;BMP_temperature;BMP_pressure;BME280_temperature;BME280_humidity;BME280_pressure;Samples;Min_cycle;Max_cycle;Signal;HPM_P1;HPM_P2
2022/03/26 00:02:08;;;;;;;;;;;;;;;25.13;61.52;97992.55;575742;246;65021;-70
2022/03/26 00:04:36;;;;;;;;;;;;;;;25.10;61.24;97985.01;575802;246;66535;-71
2022/03/26 00:07:03;;;;;;;;;;;;;;;25.10;61.78;97985.01;575775;246;66399;-68
2022/03/26 00:09:31;;;;;;;;;;;;;;;25.08;61.32;97981.81;575753;246;65253;-68
2022/03/26 00:11:58;;;;;;;;;;;;;;;25.09;61.36;97978.83;575730;246;66553;-68
2022/03/26 00:14:26;;;;;;;;;;;;;;;25.08;61.54;97979.92;575774;246;66552;-68
2022/03/26 00:16:54;;;;;;;;;;;;;;;25.08;61.57;97985.30;575766;246;65430;-68
2022/03/26 00:19:21;;;;;;;;;;;;;;;25.07;61.30;97983.67;579477;242;66705;-68
2022/03/26 00:21:49;;;;;;;;;;;;;;;25.07;62.13;97985.56;586336;242;66527;-68
2022/03/26 00:24:16;;;;;;;;;;;;;;;25.06;61.82;97986.66;586374;242;65614;-68
2022/03/26 00:26:43;;;;;;;;;;;;;;;25.06;61.79;97989.34;586360;242;66639;-68
2022/03/26 00:29:11;;;;;;;;;;;;;;;25.05;61.41;97990.43;586404;242;65880;-68
2022/03/26 00:31:39;;;;;;;;;;;;;;;25.04;61.38;97984.22;586373;242;63080;-68
2022/03/26 00:34:07;;;;;;;;;;;;;;;25.03;61.55;97988.00;586371;242;66608;-68
2022/03/26 00:36:34;;;;;;;;;;;;;;;25.03;61.51;97999.56;586352;242;64439;-68
2022/03/26 00:39:03;;;;;;;;;;;;;;;25.03;60.79;97990.69;586365;242;63087;-68
2022/03/26 00:41:30;;;;;;;;;;;;;;;25.03;61.85;97994.18;586357;242;66711;-71
2022/03/26 00:43:58;;;;;;;;;;;;;;;25.01;60.49;97999.02;586386;242;64402;-70
2022/03/26 00:46:27;;;;;;;;;;;;;;;25.01;61.07;97998.22;586359;242;63273;-71
2022/03/26 00:48:56;;;;;;;;;;;;;;;24.99;61.33;98003.89;586363;242;66567;-71
2022/03/26 00:51:23;;;;;;;;;;;;;;;24.99;61.45;98001.20;586372;242;64353;-71
2022/03/26 00:53:51;;;;;;;;;;;;;;;24.99;61.22;98006.58;586389;242;63128;-70
2022/03/26 00:56:18;;;;;;;;;;;;;;;24.99;61.49;98011.95;586379;242;66273;-70
2022/03/26 00:58:46;;;;;;;;;;;;;;;24.98;61.50;98013.02;586380;242;66393;-71
2022/03/26 01:01:13;;;;;;;;;;;;;;;24.97;61.92;98007.93;586285;242;65111;-70
2022/03/26 01:03:41;;;;;;;;;;;;;;;24.96;61.89;98003.61;586375;242;64425;-70
2022/03/26 01:06:08;;;;;;;;;;;;;;;24.96;61.19;98008.98;586363;242;66374;-70
2022/03/26 01:08:37;;;;;;;;;;;;;;;24.95;61.06;98010.08;586360;242;65496;-70
2022/03/26 01:11:05;;;;;;;;;;;;;;;24.94;62.23;98009.27;586381;240;66674;-70
2022/03/26 01:13:34;;;;;;;;;;;;;;;24.94;62.29;98009.27;586350;242;66401;-70
2022/03/26 01:16:02;;;;;;;;;;;;;;;24.91;61.50;98012.52;586335;242;63023;-70
2022/03/26 01:18:29;;;;;;;;;;;;;;;24.93;61.21;98002.27;586394;242;66835;-71
2022/03/26 01:20:57;;;;;;;;;;;;;;;24.92;62.09;98008.73;586352;242;66639;-69
2022/03/26 01:23:24;;;;;;;;;;;;;;;24.91;61.49;98004.45;586377;242;65389;-68
2022/03/26 01:25:51;;;;;;;;;;;;;;;24.92;62.22;98005.25;586334;242;66589;-68
2022/03/26 01:28:19;;;;;;;;;;;;;;;24.90;62.31;98004.70;586347;242;66341;-68
2022/03/26 01:30:46;;;;;;;;;;;;;;;24.90;61.60;98007.39;586356;242;66247;-68
2022/03/26 01:33:14;;;;;;;;;;;;;;;24.89;61.20;98009.28;586372;242;66676;-68
2022/03/26 01:35:42;;;;;;;;;;;;;;;24.87;61.84;98007.95;586353;242;66653;-70
2022/03/26 01:38:09;;;;;;;;;;;;;;;24.87;61.33;98002.56;586374;242;64985;-68
2022/03/26 01:40:37;;;;;;;;;;;;;;;24.86;61.48;98007.14;586346;242;64154;-71
2022/03/26 01:43:06;;;;;;;;;;;;;;;24.86;61.84;98004.45;586366;242;66267;-71
2022/03/26 01:45:33;;;;;;;;;;;;;;;24.84;62.44;98009.30;586351;242;63283;-70
2022/03/26 01:48:01;;;;;;;;;;;;;;;24.84;62.00;98011.98;586330;242;66504;-70
2022/03/26 01:50:29;;;;;;;;;;;;;;;24.84;63.03;98003.11;586340;242;67674;-71
2022/03/26 01:52:58;;;;;;;;;;;;;;;24.83;62.87;98006.86;586358;242;65380;-71
2022/03/26 01:55:26;;;;;;;;;;;;;;;24.83;62.11;98009.55;586365;242;66756;-70
2022/03/26 01:57:54;;;;;;;;;;;;;;;24.80;62.38;98011.73;586342;242;64330;-71
2022/03/26 02:00:21;;;;;;;;;;;;;;;24.80;62.27;98008.23;586360;242;63122;-71
2022/03/26 02:02:49;;;;;;;;;;;;;;;24.80;62.53;98014.41;586322;242;64160;-70
2022/03/26 02:05:18;;;;;;;;;;;;;;;24.80;62.66;98014.41;586402;242;64107;-70
2022/03/26 02:07:47;;;;;;;;;;;;;;;24.78;61.98;98013.88;586385;242;65378;-70
2022/03/26 02:10:15;;;;;;;;;;;;;;;24.78;62.56;98015.77;586370;242;66139;-70
2022/03/26 02:12:45;;;;;;;;;;;;;;;24.78;62.58;98013.08;586355;242;64351;-71
2022/03/26 02:15:12;;;;;;;;;;;;;;;24.77;63.62;98025.72;586118;242;63030;-70
2022/03/26 02:17:40;;;;;;;;;;;;;;;24.76;61.86;98024.08;586356;242;64450;-70
2022/03/26 02:20:08;;;;;;;;;;;;;;;24.75;62.77;98022.48;586382;242;64202;-71
2022/03/26 02:22:37;;;;;;;;;;;;;;;24.74;63.25;98025.43;586349;242;65781;-70
2022/03/26 02:25:05;;;;;;;;;;;;;;;24.73;63.03;98029.20;586367;242;64369;-70
2022/03/26 02:27:33;;;;;;;;;;;;;;;24.73;63.19;98026.52;586377;242;66327;-70
2022/03/26 02:30:02;;;;;;;;;;;;;;;24.72;62.77;98028.41;586354;242;62955;-71
2022/03/26 02:32:30;;;;;;;;;;;;;;;24.72;62.97;98024.92;586354;242;66838;-70
2022/03/26 02:34:57;;;;;;;;;;;;;;;24.70;62.34;98022.48;586372;242;66393;-70
2022/03/26 02:37:25;;;;;;;;;;;;;;;24.70;62.06;98019.00;586341;242;65176;-71
2022/03/26 02:39:52;;;;;;;;;;;;;;;24.70;62.60;98029.75;586322;242;66627;-70
2022/03/26 02:42:20;;;;;;;;;;;;;;;24.71;62.99;98025.97;586346;242;67241;-70
2022/03/26 02:44:48;;;;;;;;;;;;;;;24.68;63.59;98021.94;586357;242;63289;-70
2022/03/26 02:47:15;;;;;;;;;;;;;;;24.67;62.57;98025.72;586345;242;66892;-71
2022/03/26 02:49:43;;;;;;;;;;;;;;;24.67;62.70;98023.03;586338;242;66568;-70
2022/03/26 02:52:10;;;;;;;;;;;;;;;24.68;62.71;98023.83;586347;242;65351;-70
2022/03/26 02:54:38;;;;;;;;;;;;;;;24.67;62.59;98025.72;586329;242;66817;-70
2022/03/26 02:57:05;;;;;;;;;;;;;;;24.67;62.43;98024.92;586388;242;66342;-68
2022/03/26 02:59:33;;;;;;;;;;;;;;;24.66;62.93;98023.29;586378;242;65581;-68
2022/03/26 03:02:01;;;;;;;;;;;;;;;24.65;62.68;98021.69;586379;242;64615;-68
2022/03/26 03:04:29;;;;;;;;;;;;;;;24.64;63.55;98026.27;586348;242;64304;-68
2022/03/26 03:06:56;;;;;;;;;;;;;;;24.63;63.01;98018.45;586349;242;65574;-68
2022/03/26 03:09:24;;;;;;;;;;;;;;;24.63;63.47;98021.14;586380;242;66616;-68
2022/03/26 03:11:51;;;;;;;;;;;;;;;24.63;62.67;98015.77;586370;242;66557;-68
2022/03/26 03:14:18;;;;;;;;;;;;;;;24.61;63.72;98021.44;586394;242;65482;-68
2022/03/26 03:16:46;;;;;;;;;;;;;;;24.61;63.31;98025.98;586344;242;66557;-68
2022/03/26 03:19:14;;;;;;;;;;;;;;;24.59;62.04;98023.58;583198;242;64759;-68
2022/03/26 03:21:41;;;;;;;;;;;;;;;24.59;62.90;98029.75;575783;246;63126;-68
2022/03/26 03:24:09;;;;;;;;;;;;;;;24.59;63.99;98027.06;575742;246;64297;-68
2022/03/26 03:26:37;;;;;;;;;;;;;;;24.57;63.34;98029.20;575765;246;66713;-68
2022/03/26 03:29:04;;;;;;;;;;;;;;;24.57;63.43;98029.20;575744;246;65430;-68
2022/03/26 03:31:33;;;;;;;;;;;;;;;24.56;62.66;98030.30;575725;246;67122;-68
2022/03/26 03:34:01;;;;;;;;;;;;;;;24.56;63.62;98032.98;575745;246;66941;-68
2022/03/26 03:36:29;;;;;;;;;;;;;;;24.54;62.92;98029.75;575757;246;65401;-68
2022/03/26 03:38:56;;;;;;;;;;;;;;;24.54;62.87;98037.02;575731;246;66932;-68
2022/03/26 03:41:24;;;;;;;;;;;;;;;24.54;62.66;98040.50;575754;246;67738;-68
2022/03/26 03:43:51;;;;;;;;;;;;;;;24.53;63.40;98041.59;575718;246;66292;-68
2022/03/26 03:46:19;;;;;;;;;;;;;;;24.51;63.42;98043.73;575757;246;67634;-68
2022/03/26 03:48:46;;;;;;;;;;;;;;;24.51;63.48;98043.73;575748;246;66663;-68
2022/03/26 03:51:14;;;;;;;;;;;;;;;24.51;62.93;98046.41;575745;246;63051;-68
2022/03/26 03:53:41;;;;;;;;;;;;;;;24.51;63.33;98056.36;575722;246;64672;-68
2022/03/26 03:56:09;;;;;;;;;;;;;;;24.49;63.27;98056.62;575737;246;66597;-68
2022/03/26 03:58:36;;;;;;;;;;;;;;;24.49;63.70;98050.45;575702;246;65367;-68
2022/03/26 04:01:04;;;;;;;;;;;;;;;24.48;63.30;98051.53;575767;246;64527;-68
2022/03/26 04:03:32;;;;;;;;;;;;;;;24.47;63.25;98053.42;575733;246;66702;-68
2022/03/26 04:05:59;;;;;;;;;;;;;;;24.49;63.76;98056.62;575753;246;63217;-68
2022/03/26 04:08:28;;;;;;;;;;;;;;;24.46;63.34;98051.78;575754;246;64387;-68
2022/03/26 04:10:55;;;;;;;;;;;;;;;24.46;62.57;98051.78;575727;246;66367;-68
2022/03/26 04:13:23;;;;;;;;;;;;;;;24.45;64.08;98058.25;575730;246;65498;-68
2022/03/26 04:15:50;;;;;;;;;;;;;;;24.44;62.52;98059.30;575752;246;66793;-68
2022/03/26 04:18:18;;;;;;;;;;;;;;;24.45;62.49;98060.13;575718;246;64731;-68
2022/03/26 04:20:46;;;;;;;;;;;;;;;24.44;63.13;98059.30;585570;242;64051;-68
2022/03/26 04:23:13;;;;;;;;;;;;;;;24.42;63.34;98058.75;586351;242;64384;-68
2022/03/26 04:25:41;;;;;;;;;;;;;;;24.42;63.26;98055.23;586322;242;66919;-68
2022/03/26 04:28:08;;;;;;;;;;;;;;;24.43;63.26;98064.92;586342;242;65490;-68
2022/03/26 04:30:36;;;;;;;;;;;;;;;24.42;63.39;98066.81;586357;242;66874;-68
2022/03/26 04:33:03;;;;;;;;;;;;;;;24.40;62.41;98055.52;586334;242;66663;-68
2022/03/26 04:35:31;;;;;;;;;;;;;;;24.40;62.75;98052.84;586372;242;63072;-68
2022/03/26 04:37:59;;;;;;;;;;;;;;;24.41;62.68;98059.01;586337;242;64454;-68
2022/03/26 04:40:28;;;;;;;;;;;;;;;24.40;63.73;98062.78;586335;242;67592;-68
2022/03/26 04:42:56;;;;;;;;;;;;;;;24.38;63.01;98050.41;586321;242;63389;-68
2022/03/26 04:45:23;;;;;;;;;;;;;;;24.37;63.62;98066.80;586335;242;64998;-68
2022/03/26 04:47:51;;;;;;;;;;;;;;;24.37;63.85;98059.55;586347;242;64578;-68
2022/03/26 04:50:18;;;;;;;;;;;;;;;24.35;64.30;98067.06;586354;242;63128;-68
2022/03/26 04:52:47;;;;;;;;;;;;;;;24.36;62.67;98074.06;586346;242;65540;-68
2022/03/26 04:55:15;;;;;;;;;;;;;;;24.34;64.55;98076.20;586344;242;66691;-68
2022/03/26 04:57:43;;;;;;;;;;;;;;;24.35;63.07;98077.01;586365;242;65462;-67
2022/03/26 05:00:12;;;;;;;;;;;;;;;24.34;62.30;98075.41;586369;242;67100;-68
2022/03/26 05:02:39;;;;;;;;;;;;;;;24.34;63.69;98086.15;586331;242;66746;-68
2022/03/26 05:05:07;;;;;;;;;;;;;;;24.33;63.57;98074.58;586322;242;65307;-67
2022/03/26 05:07:46;;;;;;;;;;;;;;;24.31;63.08;98081.31;586301;242;64652;-67
2022/03/26 05:10:14;;;;;;;;;;;;;;;24.32;62.56;98077.55;586358;242;64667;-67
2022/03/26 05:12:43;;;;;;;;;;;;;;;24.30;62.63;98075.11;586309;242;65624;-68
2022/03/26 05:15:12;;;;;;;;;;;;;;;24.31;64.31;98076.75;586341;242;67015;-68
2022/03/26 05:17:39;;;;;;;;;;;;;;;24.29;62.18;98080.77;586333;242;66849;-67
2022/03/26 05:20:08;;;;;;;;;;;;;;;24.30;63.52;98085.06;586297;240;66365;-67
2022/03/26 05:22:37;;;;;;;;;;;;;;;24.29;63.23;98091.52;586334;242;64830;-68
2022/03/26 05:25:05;;;;;;;;;;;;;;;24.28;63.19;98092.56;586352;242;66564;-67
2022/03/26 05:27:32;;;;;;;;;;;;;;;24.28;64.12;98090.72;586331;242;65391;-68
2022/03/26 05:30:00;;;;;;;;;;;;;;;24.26;63.25;98089.36;586326;242;66853;-68
2022/03/26 05:32:27;;;;;;;;;;;;;;;24.27;64.80;98099.02;586323;242;66915;-68
2022/03/26 05:34:54;;;;;;;;;;;;;;;24.25;64.15;98099.28;586332;242;65388;-67
2022/03/26 05:37:22;;;;;;;;;;;;;;;24.27;64.13;98096.34;586338;242;66911;-67
2022/03/26 05:39:49;;;;;;;;;;;;;;;24.24;63.53;98100.36;586344;242;64605;-67
2022/03/26 05:42:18;;;;;;;;;;;;;;;24.24;64.29;98104.93;586323;242;63974;-67
2022/03/26 05:44:45;;;;;;;;;;;;;;;24.21;63.34;98092.84;586300;242;67046;-67
2022/03/26 05:47:13;;;;;;;;;;;;;;;24.24;63.69;98110.30;586346;242;64568;-68
2022/03/26 05:49:41;;;;;;;;;;;;;;;24.22;63.95;98107.06;586355;242;65303;-68
2022/03/26 05:52:09;;;;;;;;;;;;;;;24.21;63.88;98102.78;586362;242;64156;-67
2022/03/26 05:54:36;;;;;;;;;;;;;;;24.20;64.10;98101.15;586356;242;66674;-68
2022/03/26 05:57:04;;;;;;;;;;;;;;;24.19;64.23;98111.09;586313;242;65554;-68
2022/03/26 05:59:32;;;;;;;;;;;;;;;24.19;64.13;98108.41;586341;242;67179;-68
2022/03/26 06:01:59;;;;;;;;;;;;;;;24.19;64.27;98107.60;586340;242;66689;-68
2022/03/26 06:04:28;;;;;;;;;;;;;;;24.19;63.63;98110.29;586327;242;63027;-67
2022/03/26 06:06:56;;;;;;;;;;;;;;;24.18;63.66;98108.69;586260;242;64646;-68
2022/03/26 06:09:24;;;;;;;;;;;;;;;24.18;63.89;98103.31;586241;242;66680;-67
2022/03/26 06:11:52;;;;;;;;;;;;;;;24.18;63.95;98103.31;585623;242;64033;-67
2022/03/26 06:14:20;;;;;;;;;;;;;;;24.17;64.03;98113.23;586357;242;66769;-68
2022/03/26 06:16:47;;;;;;;;;;;;;;;24.15;64.10;98110.83;586346;242;64336;-68
2022/03/26 06:19:15;;;;;;;;;;;;;;;24.14;64.68;98117.28;586296;242;65337;-67
2022/03/26 06:21:43;;;;;;;;;;;;;;;24.14;64.15;98114.59;586329;242;64401;-67
2022/03/26 06:24:11;;;;;;;;;;;;;;;24.13;65.12;98110.27;586300;242;66380;-68
2022/03/26 06:26:39;;;;;;;;;;;;;;;24.12;64.47;98111.36;586353;242;65211;-67
2022/03/26 06:29:06;;;;;;;;;;;;;;;24.11;64.42;98115.09;586367;242;64428;-68
2022/03/26 06:31:34;;;;;;;;;;;;;;;24.12;64.41;98115.92;586346;242;66351;-68
2022/03/26 06:34:02;;;;;;;;;;;;;;;24.12;64.41;98119.41;586441;242;63148;-67
2022/03/26 06:36:30;;;;;;;;;;;;;;;24.11;64.52;98117.78;586353;242;66834;-68
2022/03/26 06:38:58;;;;;;;;;;;;;;;24.11;64.79;98114.29;586361;242;66430;-68
2022/03/26 06:41:26;;;;;;;;;;;;;;;24.10;64.15;98113.49;586210;242;63047;-69
2022/03/26 06:43:54;;;;;;;;;;;;;;;24.10;64.89;98113.49;586215;242;66814;-68
2022/03/26 06:46:21;;;;;;;;;;;;;;;24.11;65.13;98109.72;586301;242;66942;-68
2022/03/26 06:48:49;;;;;;;;;;;;;;;24.09;64.59;98111.89;586350;242;63172;-71
2022/03/26 06:51:17;;;;;;;;;;;;;;;24.08;64.17;98106.77;585752;242;66801;-65
2022/03/26 06:53:45;;;;;;;;;;;;;;;24.06;64.86;98117.79;586235;242;66785;-69
2022/03/26 06:56:13;;;;;;;;;;;;;;;24.05;64.45;98116.16;586272;242;63043;-71
2022/03/26 06:58:43;;;;;;;;;;;;;;;24.05;64.45;98118.84;586149;242;67176;-71
2022/03/26 07:01:10;;;;;;;;;;;;;;;24.03;63.58;98112.92;586176;242;64614;-72
2022/03/26 07:03:38;;;;;;;;;;;;;;;24.04;64.78;98111.88;586185;242;65532;-72
2022/03/26 07:06:05;;;;;;;;;;;;;;;24.04;64.79;98108.38;586027;242;64179;-71
2022/03/26 07:08:33;;;;;;;;;;;;;;;24.04;64.31;98113.75;586268;242;66665;-70
2022/03/26 07:11:02;;;;;;;;;;;;;;;24.05;65.10;98123.41;586228;242;65353;-70
2022/03/26 07:13:31;;;;;;;;;;;;;;;24.04;64.58;98111.07;585936;242;64971;-69
2022/03/26 07:15:59;;;;;;;;;;;;;;;24.03;64.68;98106.75;585940;242;66900;-69
2022/03/26 07:18:27;;;;;;;;;;;;;;;24.04;65.47;98111.88;585764;242;65604;-72
2022/03/26 07:20:59;;;;;;;;;;;;;;;24.03;65.02;98112.92;586210;241;64812;-71
2022/03/26 07:23:24;;;;;;;;;;;;;;;24.03;65.41;98110.23;585975;242;64715;-71
2022/03/26 07:25:53;;;;;;;;;;;;;;;24.03;64.47;98110.23;586309;242;45883;-70
2022/03/26 07:28:23;;;;;;;;;;;;;;;24.02;64.41;98111.32;586221;242;66959;-70
2022/03/26 07:30:51;;;;;;;;;;;;;;;24.00;59.45;98105.40;586212;242;65426;-70
2022/03/26 07:33:20;;;;;;;;;;;;;;;24.05;64.61;98105.42;586281;242;65534;-70
2022/03/26 07:35:48;;;;;;;;;;;;;;;24.06;65.15;98099.00;586185;242;65587;-65
2022/03/26 07:38:16;;;;;;;;;;;;;;;24.07;64.48;98100.59;586284;242;66783;-76
2022/03/26 07:40:44;;;;;;;;;;;;;;;24.07;64.64;98105.97;586304;242;65457;-71
2022/03/26 07:43:13;;;;;;;;;;;;;;;24.09;64.92;98103.00;586197;242;45297;-70
2022/03/26 07:45:41;;;;;;;;;;;;;;;24.08;65.02;98104.89;585684;242;66990;-69
2022/03/26 07:48:09;;;;;;;;;;;;;;;24.11;64.99;98107.04;585667;242;66083;-69
2022/03/26 07:50:37;;;;;;;;;;;;;;;24.11;65.39;98109.72;585794;242;67730;-69
2022/03/26 07:53:06;;;;;;;;;;;;;;;24.11;65.31;98104.35;585920;242;66597;-70
2022/03/26 07:55:36;;;;;;;;;;;;;;;24.09;64.89;98103.83;579990;242;65549;-70
2022/03/26 07:58:04;;;;;;;;;;;;;;;24.11;66.20;98101.66;586184;242;66961;-70
2022/03/26 08:00:33;;;;;;;;;;;;;;;24.11;64.77;98103.55;586262;242;66996;-70
2022/03/26 08:03:01;;;;;;;;;;;;;;;24.11;65.20;98098.98;586230;242;65793;-70
2022/03/26 08:05:29;;;;;;;;;;;;;;;24.12;64.12;98100.61;586286;242;67053;-69
2022/03/26 08:07:56;;;;;;;;;;;;;;;24.14;65.41;98097.64;586241;242;64673;-70
2022/03/26 08:10:24;;;;;;;;;;;;;;;24.15;64.85;98089.34;586174;242;65401;-70
2022/03/26 08:12:52;;;;;;;;;;;;;;;24.15;64.88;98093.91;586258;242;66942;-69
2022/03/26 08:15:20;;;;;;;;;;;;;;;24.16;65.53;98087.45;586278;242;64645;-70
2022/03/26 08:17:47;;;;;;;;;;;;;;;24.17;65.78;98086.37;586249;242;65563;-71
2022/03/26 08:20:15;;;;;;;;;;;;;;;24.18;65.08;98084.52;578591;242;64508;-70
2022/03/26 08:22:43;;;;;;;;;;;;;;;24.18;65.55;98084.52;575709;246;66783;-70
2022/03/26 08:25:11;;;;;;;;;;;;;;;24.21;65.21;98081.30;575546;246;65552;-70
2022/03/26 08:27:40;;;;;;;;;;;;;;;24.21;65.45;98076.72;575236;246;65029;-71
2022/03/26 08:30:09;;;;;;;;;;;;;;;24.24;65.78;98075.39;575679;246;66721;-70
2022/03/26 08:32:37;;;;;;;;;;;;;;;24.25;65.54;98079.67;575635;246;65333;-70
2022/03/26 08:35:05;;;;;;;;;;;;;;;24.25;64.38;98079.67;575676;246;66930;-71
2022/03/26 08:37:34;;;;;;;;;;;;;;;24.26;64.40;98074.05;575636;246;67173;-71
2022/03/26 08:40:03;;;;;;;;;;;;;;;24.27;65.07;98078.34;575593;244;63314;-71
2022/03/26 08:42:30;;;;;;;;;;;;;;;24.28;64.78;98071.91;572490;246;65804;-70
2022/03/26 08:44:58;;;;;;;;;;;;;;;24.29;64.37;98068.14;575714;246;64836;-72
2022/03/26 08:47:26;;;;;;;;;;;;;;;24.30;64.76;98066.25;575707;246;65594;-72
2022/03/26 08:49:53;;;;;;;;;;;;;;;24.31;64.73;98070.57;575647;244;64742;-70
2022/03/26 08:52:23;;;;;;;;;;;;;;;24.31;64.02;98066.00;575548;246;66871;-68
2022/03/26 08:54:51;;;;;;;;;;;;;;;24.33;63.74;98061.14;575497;246;65378;-68
2022/03/26 08:57:19;;;;;;;;;;;;;;;24.34;64.76;98060.09;575654;246;67406;-68
2022/03/26 08:59:47;;;;;;;;;;;;;;;24.36;64.40;98070.55;575500;244;66780;-68
2022/03/26 09:02:14;;;;;;;;;;;;;;;24.37;64.07;98056.06;575617;246;65399;-68
2022/03/26 09:04:42;;;;;;;;;;;;;;;24.38;63.81;98055.78;575653;246;67468;-69
2022/03/26 09:07:10;;;;;;;;;;;;;;;24.39;63.92;98056.61;575606;246;66681;-67
2022/03/26 09:09:38;;;;;;;;;;;;;;;24.40;63.91;98052.84;575669;246;63193;-69
2022/03/26 09:12:05;;;;;;;;;;;;;;;24.41;64.51;98043.69;575622;246;67189;-69
2022/03/26 09:14:33;;;;;;;;;;;;;;;24.42;64.33;98050.70;575612;246;67026;-69
2022/03/26 09:17:00;;;;;;;;;;;;;;;24.44;63.69;98045.06;575664;246;65232;-69
2022/03/26 09:19:28;;;;;;;;;;;;;;;24.44;64.09;98039.70;576730;245;64656;-69
2022/03/26 09:21:55;;;;;;;;;;;;;;;24.45;63.83;98038.64;578446;245;64345;-69
2022/03/26 09:24:23;;;;;;;;;;;;;;;24.45;63.78;98035.95;578473;245;63388;-69
2022/03/26 09:26:50;;;;;;;;;;;;;;;24.46;63.72;98043.73;578494;245;64656;-67
2022/03/26 09:29:18;;;;;;;;;;;;;;;24.47;63.88;98034.61;578449;245;64420;-70
2022/03/26 09:31:45;;;;;;;;;;;;;;;24.48;63.83;98030.84;578475;245;63105;-70
2022/03/26 09:34:13;;;;;;;;;;;;;;;24.48;63.54;98028.15;578458;245;66740;-70
2022/03/26 09:36:41;;;;;;;;;;;;;;;24.48;63.93;98028.15;578459;245;66676;-69
2022/03/26 09:39:10;;;;;;;;;;;;;;;24.50;62.62;98014.42;578462;245;62948;-69
2022/03/26 09:41:38;;;;;;;;;;;;;;;24.50;62.97;98012.57;578448;245;65688;-69
2022/03/26 09:44:07;;;;;;;;;;;;;;;24.50;64.16;98009.88;578214;245;64586;-71
2022/03/26 09:46:38;;;;;;;;;;;;;;;24.51;63.54;98011.48;578465;243;64034;-67
2022/03/26 09:49:09;;;;;;;;;;;;;;;24.51;63.66;98006.11;578465;245;64642;-65
2022/03/26 09:51:36;;;;;;;;;;;;;;;24.52;64.13;98009.59;578436;245;66773;-71
2022/03/26 09:54:04;;;;;;;;;;;;;;;24.50;64.15;98009.88;578463;245;63118;-71
2022/03/26 09:56:32;;;;;;;;;;;;;;;24.49;63.12;98016.31;578419;245;64825;-70
2022/03/26 09:59:00;;;;;;;;;;;;;;;24.49;62.55;98013.63;578449;243;66676;-69
2022/03/26 10:01:29;;;;;;;;;;;;;;;24.49;62.50;98008.25;578481;245;65383;-69
2022/03/26 10:04:13;;;;;;;;;;;;;;;24.47;61.46;98004.22;578416;243;66941;-67
2022/03/26 10:06:51;;;;;;;;;;;;;;;24.48;61.11;98003.16;578524;245;64633;-79
2022/03/26 10:09:26;;;;;;;;;;;;;;;24.43;61.10;97998.56;578470;243;64443;-70
2022/03/26 10:12:00;;;;;;;;;;;;;;;24.46;60.39;98003.42;578394;245;66804;-70
2022/03/26 10:14:40;;;;;;;;;;;;;;;24.47;60.64;98009.59;577586;244;67631;-70
2022/03/26 10:17:12;;;;;;;;;;;;;;;24.48;60.45;98003.97;577936;245;66524;-70
2022/03/26 10:19:43;;;;;;;;;;;;;;;24.47;60.73;97998.84;577952;243;63672;-69
2022/03/26 10:22:16;;;;;;;;;;;;;;;24.46;60.59;97992.67;578495;245;63841;-70
2022/03/26 10:24:44;;;;;;;;;;;;;;;24.47;61.93;97994.30;577656;245;65095;-70
2022/03/26 10:27:12;;;;;;;;;;;;;;;24.47;60.98;97991.62;578528;245;64143;-69
2022/03/26 10:29:59;;;;;;;;;;;;;;;24.48;61.38;97984.36;578569;243;45419;-70
2022/03/26 10:32:40;;;;;;;;;;;;;;;24.48;61.83;97981.67;578547;245;65339;-70
2022/03/26 10:35:14;;;;;;;;;;;;;;;24.48;61.20;97974.41;578560;245;66550;-71
2022/03/26 10:37:46;;;;;;;;;;;;;;;24.49;61.97;97969.83;578570;243;67752;-70
2022/03/26 10:40:17;;;;;;;;;;;;;;;24.49;61.88;97965.26;578543;243;65485;-71
2022/03/26 10:42:45;;;;;;;;;;;;;;;24.47;61.26;97962.06;578314;245;66590;-70
2022/03/26 10:45:15;;;;;;;;;;;;;;;24.48;61.03;97962.86;578581;245;46556;-70
2022/03/26 10:47:42;;;;;;;;;;;;;;;24.48;61.56;97952.11;578514;245;63030;-70
2022/03/26 10:50:11;;;;;;;;;;;;;;;24.49;61.42;97953.71;578390;245;64468;-70
2022/03/26 10:52:39;;;;;;;;;;;;;;;24.49;60.80;97953.71;578523;245;64844;-70
2022/03/26 10:55:16;;;;;;;;;;;;;;;24.50;61.05;97952.63;578430;245;63055;-70
2022/03/26 10:57:45;;;;;;;;;;;;;;;24.50;61.24;97958.00;578500;245;67196;-68
2022/03/26 11:00:17;;;;;;;;;;;;;;;24.50;61.64;97947.25;578527;245;64762;-69
2022/03/26 11:02:45;;;;;;;;;;;;;;;24.49;61.24;97943.77;578496;245;65456;-71
2022/03/26 11:05:13;;;;;;;;;;;;;;;24.49;61.39;97937.59;578532;245;66808;-70
2022/03/26 11:07:41;;;;;;;;;;;;;;;24.48;61.25;97931.42;578497;243;64584;-71
2022/03/26 11:10:10;;;;;;;;;;;;;;;24.49;61.38;97926.84;578522;243;63288;-71
2022/03/26 11:12:39;;;;;;;;;;;;;;;24.49;61.93;97935.70;578547;245;66795;-71
2022/03/26 11:15:08;;;;;;;;;;;;;;;24.47;61.99;97937.88;578496;243;67540;-71
2022/03/26 11:17:37;;;;;;;;;;;;;;;24.48;62.01;97933.30;578526;245;65536;-71
2022/03/26 11:20:06;;;;;;;;;;;;;;;24.47;61.40;97929.81;578471;245;66841;-71
2022/03/26 11:22:54;;;;;;;;;;;;;;;24.48;60.86;97922.55;578555;245;64627;-71
2022/03/26 11:25:32;;;;;;;;;;;;;;;24.46;60.86;97920.13;578556;245;63056;-71
2022/03/26 11:28:06;;;;;;;;;;;;;;;24.49;60.75;97910.72;578554;245;64558;-70
2022/03/26 11:30:35;;;;;;;;;;;;;;;24.49;61.58;97910.72;578526;245;67521;-70
2022/03/26 11:33:10;;;;;;;;;;;;;;;24.47;62.04;97905.63;578333;245;65464;-70
2022/03/26 11:35:39;;;;;;;;;;;;;;;24.46;61.64;97904.00;578458;245;66897;-69
2022/03/26 11:38:07;;;;;;;;;;;;;;;24.47;60.56;97900.27;578031;245;64405;-69
2022/03/26 11:40:43;;;;;;;;;;;;;;;24.47;60.99;97902.95;578518;245;63006;-69
2022/03/26 11:43:11;;;;;;;;;;;;;;;24.47;60.84;97896.75;578504;245;63648;-70
2022/03/26 11:51:27;;;;;;;;;;;;;;;24.47;61.46;97888.69;578527;245;67203;-71
2022/03/26 11:54:09;;;;;;;;;;;;;;;24.46;60.85;97889.77;578395;245;65033;-69
2022/03/26 11:56:37;;;;;;;;;;;;;;;24.47;60.89;97883.31;570344;247;65445;-69
2022/03/26 11:59:06;;;;;;;;;;;;;;;24.45;60.82;97880.91;575880;245;67139;-69
2022/03/26 12:01:37;;;;;;;;;;;;;;;24.45;59.82;97878.23;578541;245;66883;-69
2022/03/26 12:04:17;;;;;;;;;;;;;;;24.45;60.52;97872.85;578517;245;65492;-70
2022/03/26 12:06:48;;;;;;;;;;;;;;;24.45;61.88;97880.91;578527;243;65705;-69
2022/03/26 12:09:35;;;;;;;;;;;;;;;24.45;61.49;97872.85;578530;245;67066;-70
2022/03/26 12:12:19;;;;;;;;;;;;;;;24.46;61.28;97868.28;578476;245;65579;-69
2022/03/26 12:15:01;;;;;;;;;;;;;;;24.46;60.88;97874.45;578171;243;65129;-71
2022/03/26 12:17:47;;;;;;;;;;;;;;;24.47;60.42;97859.13;578548;245;67058;-72
2022/03/26 12:20:18;;;;;;;;;;;;;;;24.46;61.25;97855.64;576514;245;65415;-72
2022/03/26 12:22:47;;;;;;;;;;;;;;;24.46;60.52;97850.27;575712;246;67155;-71
2022/03/26 12:25:16;;;;;;;;;;;;;;;24.47;61.43;97846.52;575733;246;66879;-72
2022/03/26 12:27:44;;;;;;;;;;;;;;;24.46;60.84;97836.84;575706;246;63312;-72
2022/03/26 12:30:11;;;;;;;;;;;;;;;24.46;60.55;97834.14;575757;244;64902;-72
2022/03/26 12:32:41;;;;;;;;;;;;;;;24.47;60.70;97827.72;575717;246;66948;-72
2022/03/26 12:35:09;;;;;;;;;;;;;;;24.48;60.68;97829.31;575644;246;63235;-71
2022/03/26 12:37:38;;;;;;;;;;;;;;;24.49;61.18;97824.73;575711;246;68076;-71
2022/03/26 12:40:12;;;;;;;;;;;;;;;24.49;60.77;97825.53;575714;246;64882;-71
2022/03/26 12:42:36;;;;;;;;;;;;;;;24.50;60.40;97821.79;575636;246;65383;-71
2022/03/26 12:45:14;;;;;;;;;;;;;;;24.51;60.90;97834.13;575722;246;67217;-72
2022/03/26 12:47:45;;;;;;;;;;;;;;;24.52;61.19;97819.61;575708;244;66719;-72
2022/03/26 12:50:13;;;;;;;;;;;;;;;24.51;61.26;97818.02;575724;246;65469;-72
2022/03/26 12:52:41;;;;;;;;;;;;;;;24.52;61.17;97808.86;575734;246;64934;-72
2022/03/26 12:55:08;;;;;;;;;;;;;;;24.53;61.02;97810.48;575739;246;64413;-73
2022/03/26 13:00:23;;;;;;;;;;;;;;;24.55;60.36;97802.97;575695;246;67177;-73
2022/03/26 13:03:01;;;;;;;;;;;;;;;24.58;61.77;97794.34;575725;246;67422;-73
2022/03/26 13:05:30;;;;;;;;;;;;;;;24.57;60.96;97783.86;575672;244;65438;-71